Time;durP1;ratioP1;P1;durP2;ratioP2;P2;SDS_P1;SDS_P2;PMS_P1;PMS_P2;Temp;Humidity;BMP_temperature;BMP_pressure;BME280_temperature;BME280_humidity;BME280_pressure;Samples;Min_cycle;Max_cycle;Signal;HPM_P1;HPM_P2
2022/03/14 00:01:57;;;;;;;;;3.00;3.00;;;;;;;;5062556;27;51096;-61
2022/03/14 00:04:22;;;;;;;;;4.00;3.25;;;;;;;;5059999;27;51230;-60
2022/03/14 00:06:48;;;;;;;;;4.50;3.25;;;;;;;;5064403;27;51738;-60
2022/03/14 00:09:14;;;;;;;;;5.50;4.00;;;;;;;;5062789;27;52012;-61
2022/03/14 00:11:39;;;;;;;;;3.00;3.00;;;;;;;;5062941;27;51881;-61
2022/03/14 00:14:08;;;;;;;;;5.75;4.00;;;;;;;;5063728;27;51060;-61
2022/03/14 00:16:38;;;;;;;;;2.50;1.50;;;;;;;;5060097;27;52894;-61
2022/03/14 00:19:06;;;;;;;;;5.50;3.25;;;;;;;;5062659;27;51133;-61
2022/03/14 00:21:35;;;;;;;;;4.50;3.00;;;;;;;;5061802;27;51186;-62
2022/03/14 00:24:00;;;;;;;;;3.50;3.50;;;;;;;;5059217;27;51397;-61
2022/03/14 00:26:26;;;;;;;;;4.00;4.00;;;;;;;;5062182;27;52441;-61
2022/03/14 00:28:51;;;;;;;;;6.25;6.25;;;;;;;;5067404;27;52316;-60
2022/03/14 00:31:17;;;;;;;;;4.25;4.25;;;;;;;;5071629;28;51199;-60
2022/03/14 00:33:43;;;;;;;;;3.50;3.25;;;;;;;;5069924;27;51323;-60
2022/03/14 00:36:08;;;;;;;;;3.00;3.00;;;;;;;;5071312;27;51181;-61
2022/03/14 00:38:35;;;;;;;;;3.00;2.50;;;;;;;;5071611;27;51182;-61
2022/03/14 00:41:00;;;;;;;;;4.75;3.00;;;;;;;;5070652;28;51110;-61
2022/03/14 00:43:26;;;;;;;;;3.00;3.00;;;;;;;;5070242;27;51045;-61
2022/03/14 00:45:51;;;;;;;;;3.00;3.00;;;;;;;;5071503;28;52146;-61
2022/03/14 00:48:16;;;;;;;;;3.00;2.00;;;;;;;;5070590;27;51087;-61
2022/03/14 00:50:42;;;;;;;;;3.25;2.00;;;;;;;;5071701;27;50933;-61
2022/03/14 00:53:08;;;;;;;;;3.50;3.50;;;;;;;;5070873;27;51092;-61
2022/03/14 00:55:33;;;;;;;;;3.00;2.25;;;;;;;;5071642;27;52717;-60
2022/03/14 00:57:59;;;;;;;;;3.25;3.00;;;;;;;;5076017;27;51259;-60
2022/03/14 01:00:24;;;;;;;;;6.00;4.00;;;;;;;;5075943;27;51202;-61
2022/03/14 01:02:50;;;;;;;;;2.00;1.75;;;;;;;;5070609;27;52068;-61
2022/03/14 01:05:15;;;;;;;;;3.00;2.00;;;;;;;;5067065;27;52569;-61
2022/03/14 01:07:41;;;;;;;;;2.75;2.00;;;;;;;;5070660;27;51024;-60
2022/03/14 01:10:06;;;;;;;;;4.50;3.00;;;;;;;;5070645;27;51040;-60
2022/03/14 01:12:32;;;;;;;;;2.25;2.25;;;;;;;;5069601;27;51271;-61
2022/03/14 01:14:57;;;;;;;;;3.50;3.00;;;;;;;;5072447;28;51314;-61
2022/03/14 01:17:23;;;;;;;;;2.00;2.00;;;;;;;;5073348;28;51162;-61
2022/03/14 01:19:48;;;;;;;;;3.25;2.00;;;;;;;;5072214;28;51204;-61
2022/03/14 01:22:13;;;;;;;;;2.50;2.25;;;;;;;;5070382;28;51365;-61
2022/03/14 01:24:39;;;;;;;;;3.50;3.00;;;;;;;;5067352;28;51108;-61
2022/03/14 01:27:05;;;;;;;;;6.00;2.75;;;;;;;;5073594;28;51071;-61
2022/03/14 01:29:31;;;;;;;;;28.25;28.25;;;;;;;;5073985;27;51034;-61
2022/03/14 01:31:56;;;;;;;;;3.00;2.75;;;;;;;;5074332;28;50949;-60
2022/03/14 01:34:21;;;;;;;;;1.00;1.00;;;;;;;;5072247;27;51072;-61
2022/03/14 01:36:47;;;;;;;;;3.25;3.00;;;;;;;;5078481;27;50870;-61
2022/03/14 01:39:12;;;;;;;;;2.75;2.00;;;;;;;;5075865;28;51250;-61
2022/03/14 01:41:37;;;;;;;;;2.75;2.00;;;;;;;;5072616;28;51125;-61
2022/03/14 01:44:03;;;;;;;;;4.00;3.00;;;;;;;;5067759;28;50905;-61
2022/03/14 01:46:28;;;;;;;;;2.00;1.33;;;;;;;;5071999;28;51150;-61
2022/03/14 01:48:53;;;;;;;;;2.75;2.00;;;;;;;;5071893;27;51026;-61
2022/03/14 01:51:20;;;;;;;;;2.75;2.00;;;;;;;;5071802;28;51244;-61
2022/03/14 01:53:46;;;;;;;;;2.00;2.00;;;;;;;;5073143;27;52779;-61
2022/03/14 01:56:14;;;;;;;;;2.00;2.00;;;;;;;;5073465;27;51107;-61
2022/03/14 01:58:40;;;;;;;;;2.50;2.00;;;;;;;;5080819;27;51033;-61
2022/03/14 02:01:05;;;;;;;;;2.50;2.00;;;;;;;;5075360;27;51143;-61
2022/03/14 02:03:30;;;;;;;;;1.67;1.00;;;;;;;;5071764;28;51867;-61
2022/03/14 02:05:55;;;;;;;;;3.00;2.00;;;;;;;;5073466;27;50856;-61
2022/03/14 02:08:21;;;;;;;;;4.00;2.00;;;;;;;;5073192;28;51000;-62
2022/03/14 02:10:46;;;;;;;;;4.25;2.50;;;;;;;;5074200;27;51009;-61
2022/03/14 02:13:11;;;;;;;;;2.00;1.25;;;;;;;;5072436;27;52293;-61
2022/03/14 02:15:38;;;;;;;;;3.75;2.75;;;;;;;;5072881;28;51101;-61
2022/03/14 02:18:03;;;;;;;;;2.33;1.00;;;;;;;;5070660;27;51118;-61
2022/03/14 02:20:29;;;;;;;;;2.00;1.00;;;;;;;;5073321;27;51088;-61
2022/03/14 02:22:55;;;;;;;;;7.50;6.00;;;;;;;;5074283;27;51078;-61
2022/03/14 02:25:20;;;;;;;;;1.00;1.00;;;;;;;;5073444;27;50952;-61
2022/03/14 02:27:46;;;;;;;;;3.75;3.00;;;;;;;;5072188;27;50919;-62
2022/03/14 02:30:11;;;;;;;;;2.00;1.00;;;;;;;;5074211;27;51191;-61
2022/03/14 02:32:41;;;;;;;;;2.00;1.00;;;;;;;;5070735;28;51233;-61
2022/03/14 02:35:06;;;;;;;;;1.67;1.67;;;;;;;;5072801;27;50970;-62
2022/03/14 02:37:31;;;;;;;;;5.00;3.00;;;;;;;;5073031;27;51137;-61
2022/03/14 02:39:57;;;;;;;;;1.25;1.25;;;;;;;;5075114;27;51146;-61
2022/03/14 02:42:22;;;;;;;;;3.25;2.50;;;;;;;;5073230;27;51083;-62
2022/03/14 02:44:47;;;;;;;;;8.25;7.00;;;;;;;;5075060;28;51123;-61
2022/03/14 02:47:13;;;;;;;;;6.75;3.00;;;;;;;;5074336;28;50882;-62
2022/03/14 02:49:38;;;;;;;;;2.25;2.25;;;;;;;;5073030;27;51071;-62
2022/03/14 02:52:04;;;;;;;;;3.50;2.00;;;;;;;;5104217;27;53699;-60
2022/03/14 02:54:29;;;;;;;;;3.75;2.75;;;;;;;;5072345;27;51074;-60
2022/03/14 02:56:54;;;;;;;;;2.67;1.33;;;;;;;;5071770;27;52659;-60
2022/03/14 02:59:20;;;;;;;;;2.75;2.75;;;;;;;;5073410;28;51435;-60
2022/03/14 03:01:45;;;;;;;;;3.75;3.00;;;;;;;;5072335;27;51844;-60
2022/03/14 03:04:11;;;;;;;;;3.00;2.25;;;;;;;;5069280;28;51178;-60
2022/03/14 03:06:36;;;;;;;;;4.00;4.00;;;;;;;;5066603;27;51290;-60
2022/03/14 03:09:03;;;;;;;;;5.25;3.00;;;;;;;;5068689;27;51315;-60
2022/03/14 03:11:28;;;;;;;;;4.50;4.50;;;;;;;;5072920;28;52301;-60
2022/03/14 03:13:54;;;;;;;;;4.25;3.00;;;;;;;;5074070;27;51104;-60
2022/03/14 03:16:20;;;;;;;;;3.50;3.00;;;;;;;;5072441;28;51263;-61
2022/03/14 03:18:45;;;;;;;;;2.00;2.00;;;;;;;;5072074;27;51222;-60
2022/03/14 03:21:10;;;;;;;;;2.00;2.00;;;;;;;;5071422;28;51379;-60
2022/03/14 03:23:36;;;;;;;;;2.00;2.00;;;;;;;;5070712;27;51169;-60
2022/03/14 03:26:02;;;;;;;;;4.00;2.75;;;;;;;;5068676;27;51279;-61
2022/03/14 03:28:28;;;;;;;;;2.25;1.25;;;;;;;;5072278;28;51081;-61
2022/03/14 03:30:53;;;;;;;;;4.00;3.75;;;;;;;;5073515;28;51961;-61
2022/03/14 03:33:19;;;;;;;;;3.50;2.00;;;;;;;;5072808;28;50922;-61
2022/03/14 03:35:44;;;;;;;;;3.25;2.25;;;;;;;;5071836;27;51211;-60
2022/03/14 03:38:09;;;;;;;;;6.00;2.00;;;;;;;;5078101;27;51159;-61
2022/03/14 03:40:34;;;;;;;;;1.00;1.00;;;;;;;;5073287;27;51891;-61
2022/03/14 03:43:00;;;;;;;;;3.00;2.25;;;;;;;;5069667;27;51012;-61
2022/03/14 03:45:26;;;;;;;;;2.75;2.75;;;;;;;;5072455;28;50913;-61
2022/03/14 03:47:51;;;;;;;;;2.00;1.00;;;;;;;;5072212;27;51012;-61
2022/03/14 03:50:17;;;;;;;;;6.00;3.75;;;;;;;;5071128;27;52715;-61
2022/03/14 03:52:42;;;;;;;;;5.50;4.00;;;;;;;;5072696;28;51031;-61
2022/03/14 03:55:08;;;;;;;;;2.25;2.00;;;;;;;;5072004;27;51130;-61
2022/03/14 03:57:35;;;;;;;;;2.00;2.00;;;;;;;;5070964;28;51421;-61
2022/03/14 04:00:00;;;;;;;;;2.25;2.00;;;;;;;;5068555;27;53167;-61
2022/03/14 04:02:25;;;;;;;;;3.25;2.75;;;;;;;;5070960;27;52605;-61
2022/03/14 04:04:51;;;;;;;;;3.50;2.75;;;;;;;;5066395;27;51167;-61
2022/03/14 04:07:23;;;;;;;;;3.00;3.00;;;;;;;;5071654;27;51220;-60
2022/03/14 04:09:50;;;;;;;;;4.00;4.00;;;;;;;;5070382;27;52914;-61
2022/03/14 04:12:15;;;;;;;;;4.50;3.00;;;;;;;;5070006;27;51178;-61
2022/03/14 04:14:40;;;;;;;;;2.75;2.75;;;;;;;;5072715;27;51118;-60
2022/03/14 04:17:07;;;;;;;;;3.75;3.00;;;;;;;;5071667;27;50990;-60
2022/03/14 04:19:36;;;;;;;;;2.00;2.00;;;;;;;;5070562;27;51044;-60
2022/03/14 04:22:01;;;;;;;;;6.50;5.25;;;;;;;;5071577;27;51160;-60
2022/03/14 04:24:26;;;;;;;;;3.00;3.00;;;;;;;;5070814;27;51299;-61
2022/03/14 04:26:52;;;;;;;;;4.50;3.50;;;;;;;;5071169;27;51235;-61
2022/03/14 04:29:17;;;;;;;;;3.00;2.00;;;;;;;;5071042;27;51839;-61
2022/03/14 04:31:42;;;;;;;;;4.00;4.00;;;;;;;;5068903;28;51072;-61
2022/03/14 04:34:07;;;;;;;;;5.00;3.25;;;;;;;;5071999;28;51013;-61
2022/03/14 04:36:33;;;;;;;;;5.00;3.50;;;;;;;;5072011;27;50946;-61
2022/03/14 04:38:58;;;;;;;;;2.00;2.00;;;;;;;;5071769;28;51959;-61
2022/03/14 04:41:23;;;;;;;;;3.75;3.25;;;;;;;;5069780;28;51148;-62
2022/03/14 04:43:48;;;;;;;;;1.00;1.00;;;;;;;;5072744;27;51488;-62
2022/03/14 04:46:14;;;;;;;;;3.25;3.00;;;;;;;;5071429;28;51229;-62
2022/03/14 04:48:39;;;;;;;;;3.50;2.50;;;;;;;;5069891;27;52575;-60
2022/03/14 04:51:04;;;;;;;;;6.00;4.00;;;;;;;;5066070;27;51342;-61
2022/03/14 04:53:30;;;;;;;;;4.75;3.75;;;;;;;;5068697;27;51211;-61
2022/03/14 04:55:55;;;;;;;;;4.50;3.00;;;;;;;;5072704;27;51414;-60
2022/03/14 04:58:20;;;;;;;;;4.50;4.50;;;;;;;;5067304;28;52193;-61
2022/03/14 05:00:46;;;;;;;;;3.75;3.00;;;;;;;;5070430;27;51103;-60
2022/03/14 05:03:11;;;;;;;;;4.00;3.00;;;;;;;;5070852;28;50864;-61
2022/03/14 05:05:37;;;;;;;;;2.50;2.25;;;;;;;;5069193;27;51478;-61
2022/03/14 05:08:03;;;;;;;;;4.25;3.25;;;;;;;;5068764;27;51876;-60
2022/03/14 05:10:28;;;;;;;;;6.75;5.00;;;;;;;;5071662;27;51051;-60
2022/03/14 05:12:54;;;;;;;;;4.25;4.00;;;;;;;;5069208;27;51143;-61
2022/03/14 05:15:19;;;;;;;;;3.50;3.50;;;;;;;;5072426;28;50874;-61
2022/03/14 05:17:45;;;;;;;;;4.00;3.50;;;;;;;;5070755;27;51024;-61
2022/03/14 05:20:11;;;;;;;;;8.00;6.00;;;;;;;;5069925;27;51292;-62
2022/03/14 05:22:43;;;;;;;;;6.50;4.00;;;;;;;;5066679;27;51287;-63
2022/03/14 05:25:09;;;;;;;;;7.00;6.75;;;;;;;;5071270;27;52010;-61
2022/03/14 05:27:34;;;;;;;;;3.75;3.75;;;;;;;;5070280;27;51773;-61
2022/03/14 05:29:59;;;;;;;;;4.00;3.25;;;;;;;;5071615;27;51016;-61
2022/03/14 05:32:25;;;;;;;;;3.25;3.25;;;;;;;;5070540;27;51400;-61
2022/03/14 05:34:50;;;;;;;;;4.50;4.00;;;;;;;;5071185;27;51178;-61
2022/03/14 05:37:17;;;;;;;;;4.25;4.25;;;;;;;;5074487;27;51772;-61
2022/03/14 05:39:42;;;;;;;;;5.00;5.00;;;;;;;;5068902;27;51061;-61
2022/03/14 05:42:08;;;;;;;;;5.50;5.25;;;;;;;;5069409;27;51285;-61
2022/03/14 05:44:33;;;;;;;;;6.00;4.25;;;;;;;;5070605;27;51053;-61
2022/03/14 05:46:58;;;;;;;;;5.00;3.00;;;;;;;;5076042;27;51943;-61
2022/03/14 05:49:23;;;;;;;;;4.75;3.00;;;;;;;;5069235;28;51163;-60
2022/03/14 05:51:49;;;;;;;;;5.25;5.25;;;;;;;;5062142;27;51405;-60
2022/03/14 05:54:14;;;;;;;;;3.25;3.25;;;;;;;;5066630;27;51105;-63
2022/03/14 05:56:40;;;;;;;;;5.00;5.00;;;;;;;;5068403;27;51876;-62
2022/03/14 05:59:07;;;;;;;;;6.75;5.75;;;;;;;;5068020;27;51082;-64
2022/03/14 06:01:32;;;;;;;;;5.50;4.25;;;;;;;;5071904;27;51213;-64
2022/03/14 06:03:57;;;;;;;;;5.75;5.75;;;;;;;;5072571;27;51313;-62
2022/03/14 06:06:23;;;;;;;;;7.00;6.75;;;;;;;;5071482;27;51984;-63
2022/03/14 06:08:48;;;;;;;;;6.00;5.25;;;;;;;;5072936;28;51109;-63
2022/03/14 06:11:14;;;;;;;;;6.00;5.00;;;;;;;;5073963;27;50831;-63
2022/03/14 06:13:39;;;;;;;;;5.25;5.00;;;;;;;;5074477;27;51084;-63
2022/03/14 06:16:05;;;;;;;;;7.00;6.00;;;;;;;;5071395;28;53966;-63
2022/03/14 06:18:31;;;;;;;;;4.50;4.50;;;;;;;;5069300;27;51197;-62
2022/03/14 06:20:56;;;;;;;;;7.25;5.75;;;;;;;;5072429;27;51218;-65
2022/03/14 06:23:21;;;;;;;;;6.75;5.75;;;;;;;;5072846;28;51261;-62
2022/03/14 06:25:47;;;;;;;;;5.50;5.50;;;;;;;;5069875;28;52951;-63
2022/03/14 06:28:12;;;;;;;;;7.00;4.25;;;;;;;;5072410;27;51217;-63
2022/03/14 06:30:37;;;;;;;;;6.75;6.00;;;;;;;;5071991;27;51144;-63
2022/03/14 06:33:02;;;;;;;;;4.50;3.00;;;;;;;;5073320;28;51415;-63
2022/03/14 06:35:28;;;;;;;;;2.50;2.50;;;;;;;;5072305;27;52098;-63
2022/03/14 06:37:53;;;;;;;;;4.25;4.25;;;;;;;;5075585;27;51216;-63
2022/03/14 06:40:19;;;;;;;;;6.00;5.25;;;;;;;;5074102;28;51304;-63
2022/03/14 06:42:48;;;;;;;;;6.00;6.00;;;;;;;;5074069;28;51077;-62
2022/03/14 06:45:14;;;;;;;;;5.75;5.75;;;;;;;;5073501;28;50974;-63
2022/03/14 06:47:39;;;;;;;;;7.00;6.75;;;;;;;;5074014;28;51038;-64
2022/03/14 06:50:10;;;;;;;;;12.75;12.25;;;;;;;;5062395;28;51148;-62
2022/03/14 06:52:36;;;;;;;;;6.75;6.75;;;;;;;;5062899;28;50964;-63
2022/03/14 06:55:04;;;;;;;;;8.00;7.00;;;;;;;;5068364;28;51169;-62
2022/03/14 06:57:30;;;;;;;;;6.75;6.75;;;;;;;;5072550;28;51163;-62
2022/03/14 06:59:55;;;;;;;;;4.50;3.25;;;;;;;;5072801;27;51152;-62
2022/03/14 07:02:24;;;;;;;;;7.00;7.00;;;;;;;;5072287;27;51394;-63
2022/03/14 07:04:49;;;;;;;;;11.00;8.50;;;;;;;;5064453;27;51103;-63
2022/03/14 07:07:14;;;;;;;;;11.50;10.75;;;;;;;;5070784;27;51138;-63
2022/03/14 07:09:39;;;;;;;;;8.00;7.25;;;;;;;;5072892;28;51137;-63
2022/03/14 07:12:05;;;;;;;;;11.75;8.25;;;;;;;;5072325;28;51118;-63
2022/03/14 07:14:30;;;;;;;;;6.00;6.00;;;;;;;;5073660;27;51098;-62
2022/03/14 07:16:55;;;;;;;;;7.50;6.50;;;;;;;;5073242;28;50906;-62
2022/03/14 07:19:21;;;;;;;;;17.50;15.25;;;;;;;;5072941;28;50958;-63
2022/03/14 07:21:46;;;;;;;;;10.50;8.50;;;;;;;;5073158;28;51053;-62
2022/03/14 07:24:11;;;;;;;;;7.25;7.00;;;;;;;;5073071;28;51724;-63
2022/03/14 07:26:36;;;;;;;;;10.25;8.50;;;;;;;;5070828;28;51039;-62
2022/03/14 07:29:02;;;;;;;;;10.00;8.00;;;;;;;;5072234;28;51148;-63
2022/03/14 07:31:27;;;;;;;;;8.50;7.75;;;;;;;;5067251;27;51102;-63
2022/03/14 07:33:53;;;;;;;;;10.00;7.00;;;;;;;;5072965;27;51073;-63
2022/03/14 07:36:18;;;;;;;;;10.50;7.75;;;;;;;;5076307;27;50952;-63
2022/03/14 07:38:44;;;;;;;;;8.00;8.00;;;;;;;;5080637;27;51227;-63
2022/03/14 07:41:10;;;;;;;;;9.67;9.00;;;;;;;;5072465;27;51195;-63
2022/03/14 07:43:36;;;;;;;;;10.00;9.00;;;;;;;;5073724;28;51112;-63
2022/03/14 07:46:02;;;;;;;;;12.67;11.00;;;;;;;;5073817;28;51121;-62
2022/03/14 07:48:27;;;;;;;;;14.75;14.00;;;;;;;;5073624;28;51018;-63
2022/03/14 07:50:52;;;;;;;;;8.67;7.33;;;;;;;;5073168;28;51298;-63
2022/03/14 07:53:18;;;;;;;;;11.33;11.33;;;;;;;;5072767;28;52216;-63
2022/03/14 07:55:43;;;;;;;;;8.33;8.00;;;;;;;;5072442;28;50996;-63
2022/03/14 07:58:08;;;;;;;;;10.33;10.00;;;;;;;;5072374;28;51287;-63
2022/03/14 08:00:33;;;;;;;;;12.00;10.67;;;;;;;;5072876;28;51055;-63
2022/03/14 08:02:58;;;;;;;;;9.67;8.67;;;;;;;;5072369;28;51272;-63
2022/03/14 08:05:25;;;;;;;;;9.33;8.00;;;;;;;;5072278;28;50882;-63
2022/03/14 08:07:51;;;;;;;;;8.33;8.33;;;;;;;;5072102;28;50872;-63
2022/03/14 08:10:17;;;;;;;;;10.33;9.33;;;;;;;;5070651;28;50989;-63
2022/03/14 08:12:49;;;;;;;;;8.33;7.67;;;;;;;;5071697;27;53448;-65
2022/03/14 08:15:22;;;;;;;;;7.33;6.67;;;;;;;;5072341;28;50927;-62
2022/03/14 08:17:47;;;;;;;;;8.00;7.00;;;;;;;;5072196;28;51196;-63
2022/03/14 08:20:13;;;;;;;;;11.00;9.33;;;;;;;;5072128;28;51215;-62
2022/03/14 08:22:38;;;;;;;;;9.33;9.00;;;;;;;;5072056;28;51100;-63
2022/03/14 08:25:04;;;;;;;;;11.00;10.67;;;;;;;;5071765;28;51146;-63
2022/03/14 08:27:29;;;;;;;;;7.67;7.00;;;;;;;;5072123;28;51035;-63
2022/03/14 08:29:54;;;;;;;;;7.67;7.67;;;;;;;;5071887;28;50975;-63
2022/03/14 08:32:24;;;;;;;;;9.33;8.33;;;;;;;;5071451;28;51961;-64
2022/03/14 08:34:52;;;;;;;;;7.00;6.67;;;;;;;;5072185;27;51183;-63
2022/03/14 08:37:17;;;;;;;;;9.00;9.00;;;;;;;;5071833;27;51062;-64
2022/03/14 08:39:42;;;;;;;;;10.00;9.33;;;;;;;;5071937;28;51132;-64
2022/03/14 08:42:09;;;;;;;;;9.00;9.00;;;;;;;;5071360;28;51682;-63
2022/03/14 08:44:34;;;;;;;;;8.00;7.67;;;;;;;;5071685;27;51006;-64
2022/03/14 08:46:59;;;;;;;;;10.67;10.33;;;;;;;;5072123;28;51119;-62
2022/03/14 08:49:25;;;;;;;;;9.67;9.00;;;;;;;;5072049;27;51129;-62
2022/03/14 08:51:50;;;;;;;;;17.67;17.00;;;;;;;;5071292;27;53056;-63
2022/03/14 08:54:15;;;;;;;;;11.00;9.67;;;;;;;;5071575;27;51086;-64
2022/03/14 08:56:41;;;;;;;;;10.33;10.00;;;;;;;;5071468;28;51397;-61
2022/03/14 08:59:06;;;;;;;;;9.00;9.00;;;;;;;;5071158;27;51730;-64
2022/03/14 09:01:32;;;;;;;;;9.33;7.67;;;;;;;;5071374;28;51915;-62
2022/03/14 09:03:58;;;;;;;;;16.00;15.33;;;;;;;;5057506;28;50908;-63
2022/03/14 09:06:24;;;;;;;;;9.00;8.00;;;;;;;;5065664;28;51043;-64
2022/03/14 09:08:49;;;;;;;;;9.67;8.67;;;;;;;;5072610;28;50897;-64
2022/03/14 09:11:15;;;;;;;;;8.67;8.00;;;;;;;;5073897;28;50961;-63
2022/03/14 09:13:40;;;;;;;;;10.00;9.00;;;;;;;;5071886;28;50941;-63
2022/03/14 09:16:08;;;;;;;;;8.00;8.00;;;;;;;;5072122;28;51083;-63
2022/03/14 09:18:33;;;;;;;;;8.00;7.00;;;;;;;;5072022;28;50937;-64
2022/03/14 09:20:58;;;;;;;;;12.33;10.00;;;;;;;;5071444;28;51006;-63
2022/03/14 09:23:25;;;;;;;;;9.00;8.00;;;;;;;;5071552;28;51051;-64
2022/03/14 09:25:50;;;;;;;;;8.67;8.67;;;;;;;;5071395;28;51052;-64
2022/03/14 09:28:15;;;;;;;;;10.00;9.33;;;;;;;;5069526;28;51105;-64
2022/03/14 09:30:41;;;;;;;;;11.00;10.00;;;;;;;;5069898;27;51096;-64
2022/03/14 09:33:07;;;;;;;;;12.00;11.33;;;;;;;;5071309;28;51174;-63
2022/03/14 09:35:34;;;;;;;;;11.67;11.00;;;;;;;;5072997;28;51317;-63
2022/03/14 09:37:59;;;;;;;;;9.67;9.33;;;;;;;;5078359;27;51316;-63
2022/03/14 09:40:24;;;;;;;;;11.33;10.67;;;;;;;;5074399;28;51708;-63
2022/03/14 09:42:51;;;;;;;;;12.67;12.33;;;;;;;;5073573;28;51245;-63
2022/03/14 09:45:17;;;;;;;;;14.67;11.33;;;;;;;;5074362;28;51046;-63
2022/03/14 09:47:44;;;;;;;;;12.00;9.33;;;;;;;;5074452;28;51295;-63
2022/03/14 09:50:14;;;;;;;;;11.00;9.33;;;;;;;;5074520;28;53005;-63
2022/03/14 09:52:43;;;;;;;;;12.00;12.00;;;;;;;;5074275;28;50850;-63
2022/03/14 09:55:10;;;;;;;;;12.00;11.00;;;;;;;;5072968;28;51145;-63
2022/03/14 09:57:37;;;;;;;;;13.67;13.00;;;;;;;;5074305;28;50900;-63
2022/03/14 10:00:03;;;;;;;;;12.33;11.67;;;;;;;;5074076;28;51111;-63
2022/03/14 10:02:28;;;;;;;;;7.67;7.33;;;;;;;;5073855;28;51167;-63
2022/03/14 10:04:54;;;;;;;;;10.00;10.00;;;;;;;;5072068;28;50908;-63
2022/03/14 10:07:21;;;;;;;;;10.00;9.33;;;;;;;;5073988;27;50807;-63
2022/03/14 10:09:46;;;;;;;;;11.00;10.67;;;;;;;;5073902;28;52067;-63
2022/03/14 10:12:12;;;;;;;;;10.00;9.67;;;;;;;;5072912;27;51253;-63
2022/03/14 10:14:37;;;;;;;;;11.00;11.00;;;;;;;;5074017;28;51060;-62
2022/03/14 10:17:03;;;;;;;;;11.67;10.00;;;;;;;;5074118;28;51385;-62
2022/03/14 10:19:34;;;;;;;;;9.33;9.33;;;;;;;;5071632;28;51971;-63
2022/03/14 10:22:15;;;;;;;;;14.67;12.00;;;;;;;;5074112;28;51194;-63
2022/03/14 10:24:40;;;;;;;;;13.33;13.00;;;;;;;;5073630;28;50992;-63
2022/03/14 10:27:06;;;;;;;;;12.00;12.00;;;;;;;;5073769;28;51053;-63
2022/03/14 10:29:31;;;;;;;;;12.00;10.00;;;;;;;;5073004;28;52005;-64
2022/03/14 10:31:56;;;;;;;;;15.33;13.00;;;;;;;;5073528;28;50887;-63
2022/03/14 10:34:22;;;;;;;;;11.00;9.33;;;;;;;;5073382;28;51131;-64
2022/03/14 10:36:49;;;;;;;;;12.67;11.00;;;;;;;;5080389;27;50907;-64
2022/03/14 10:39:15;;;;;;;;;7.00;7.00;;;;;;;;5074101;27;52196;-63
2022/03/14 10:41:40;;;;;;;;;11.67;10.67;;;;;;;;5072826;27;50975;-64
2022/03/14 10:44:06;;;;;;;;;11.33;11.33;;;;;;;;5073351;28;51030;-63
2022/03/14 10:46:32;;;;;;;;;11.00;10.00;;;;;;;;5068223;28;51055;-63
2022/03/14 10:48:58;;;;;;;;;8.33;8.33;;;;;;;;5102258;27;53812;-63
2022/03/14 10:51:23;;;;;;;;;12.33;11.67;;;;;;;;5064519;27;51213;-63
2022/03/14 10:53:48;;;;;;;;;10.00;9.00;;;;;;;;5073662;27;50995;-63
2022/03/14 10:56:14;;;;;;;;;9.33;9.33;;;;;;;;5073811;27;51077;-62
2022/03/14 10:58:40;;;;;;;;;11.00;9.00;;;;;;;;5073502;28;51156;-63
2022/03/14 11:01:06;;;;;;;;;9.33;8.67;;;;;;;;5070447;28;51198;-62
2022/03/14 11:03:36;;;;;;;;;9.67;9.00;;;;;;;;5069560;27;51190;-63
2022/03/14 11:06:02;;;;;;;;;7.00;7.00;;;;;;;;5072375;28;51285;-63
2022/03/14 11:08:29;;;;;;;;;9.00;8.33;;;;;;;;5071386;28;51798;-63
2022/03/14 11:10:55;;;;;;;;;7.33;6.67;;;;;;;;5073463;28;50953;-62
2022/03/14 11:13:20;;;;;;;;;6.00;6.00;;;;;;;;5072113;27;51172;-63
2022/03/14 11:15:46;;;;;;;;;8.67;8.00;;;;;;;;5070376;28;51255;-62
2022/03/14 11:18:11;;;;;;;;;12.00;8.33;;;;;;;;5072375;27;51930;-62
2022/03/14 11:20:36;;;;;;;;;10.00;8.00;;;;;;;;5073222;28;50995;-63
2022/03/14 11:23:02;;;;;;;;;7.67;7.67;;;;;;;;5072975;28;51195;-62
2022/03/14 11:25:28;;;;;;;;;8.67;7.67;;;;;;;;5074098;28;50891;-63
2022/03/14 11:27:55;;;;;;;;;7.00;6.67;;;;;;;;5072535;27;51024;-62
2022/03/14 11:30:21;;;;;;;;;9.00;8.00;;;;;;;;5073293;28;51116;-62
2022/03/14 11:32:46;;;;;;;;;8.00;7.33;;;;;;;;5072129;28;51287;-63
2022/03/14 11:35:11;;;;;;;;;7.33;6.00;;;;;;;;5072155;28;51040;-63
2022/03/14 11:37:37;;;;;;;;;8.67;7.67;;;;;;;;5069707;27;51147;-63
2022/03/14 11:40:04;;;;;;;;;8.33;8.00;;;;;;;;5072699;27;51019;-63
2022/03/14 11:42:29;;;;;;;;;2.33;2.33;;;;;;;;5072985;28;51072;-63
2022/03/14 11:44:55;;;;;;;;;6.00;6.00;;;;;;;;5071080;28;51191;-63
2022/03/14 11:47:22;;;;;;;;;7.67;7.00;;;;;;;;5072067;28;51041;-63
2022/03/14 11:49:48;;;;;;;;;5.33;4.67;;;;;;;;5071644;28;50953;-63
2022/03/14 11:52:20;;;;;;;;;8.00;7.00;;;;;;;;5071517;28;51327;-63
2022/03/14 11:54:55;;;;;;;;;10.00;8.00;;;;;;;;5070695;28;51093;-61
2022/03/14 11:57:34;;;;;;;;;9.67;8.33;;;;;;;;5069209;28;51198;-64
2022/03/14 12:00:18;;;;;;;;;7.00;6.00;;;;;;;;5067220;28;51070;-63
2022/03/14 12:02:43;;;;;;;;;9.00;8.00;;;;;;;;5071707;27;51164;-63
2022/03/14 12:05:08;;;;;;;;;4.67;3.67;;;;;;;;5071800;28;50990;-65
2022/03/14 12:07:34;;;;;;;;;13.33;12.33;;;;;;;;5072119;28;51106;-63
2022/03/14 12:10:02;;;;;;;;;7.67;7.00;;;;;;;;5071637;28;51090;-62
2022/03/14 12:12:28;;;;;;;;;4.33;4.00;;;;;;;;5069519;28;51060;-63
2022/03/14 12:14:56;;;;;;;;;7.00;7.00;;;;;;;;5071644;28;51103;-63
2022/03/14 12:17:23;;;;;;;;;5.67;5.00;;;;;;;;5069718;28;53978;-62
2022/03/14 12:19:48;;;;;;;;;5.00;5.00;;;;;;;;5070694;28;51138;-62
2022/03/14 12:22:32;;;;;;;;;3.67;3.00;;;;;;;;5071689;27;51176;-63
2022/03/14 12:24:58;;;;;;;;;7.00;6.00;;;;;;;;5071923;28;50891;-62
2022/03/14 12:27:23;;;;;;;;;5.00;5.00;;;;;;;;5070456;28;51070;-62
2022/03/14 12:29:54;;;;;;;;;6.00;4.33;;;;;;;;5070780;28;51072;-63
2022/03/14 12:32:38;;;;;;;;;7.33;7.00;;;;;;;;5072439;28;51063;-63
2022/03/14 12:35:05;;;;;;;;;5.00;5.00;;;;;;;;5073017;28;51093;-63
2022/03/14 12:37:36;;;;;;;;;5.00;5.00;;;;;;;;5078434;27;51841;-64
2022/03/14 12:40:21;;;;;;;;;7.67;6.00;;;;;;;;5071803;27;50954;-63
2022/03/14 12:42:50;;;;;;;;;7.33;5.67;;;;;;;;5063588;27;52228;-63
2022/03/14 12:45:15;;;;;;;;;5.00;4.00;;;;;;;;5071657;28;51375;-63
2022/03/14 12:47:55;;;;;;;;;5.33;5.00;;;;;;;;5070514;28;52052;-63
2022/03/14 12:50:39;;;;;;;;;8.67;8.33;;;;;;;;5069162;28;51146;-63
2022/03/14 12:53:04;;;;;;;;;8.67;7.00;;;;;;;;5069633;28;51154;-64
2022/03/14 12:55:29;;;;;;;;;7.00;6.67;;;;;;;;5070594;28;51140;-64
2022/03/14 12:57:55;;;;;;;;;5.33;5.00;;;;;;;;5070885;28;51885;-63
2022/03/14 13:00:21;;;;;;;;;3.33;3.00;;;;;;;;5071567;28;50988;-64
2022/03/14 13:02:46;;;;;;;;;8.00;7.67;;;;;;;;5070136;27;51218;-64
2022/03/14 13:05:11;;;;;;;;;5.33;5.00;;;;;;;;5061122;28;51367;-64
2022/03/14 13:07:37;;;;;;;;;7.33;6.00;;;;;;;;5071624;27;51865;-63
2022/03/14 13:10:02;;;;;;;;;6.00;5.33;;;;;;;;5072489;28;51035;-63
2022/03/14 13:12:32;;;;;;;;;5.67;5.00;;;;;;;;5074047;27;51249;-62
2022/03/14 13:15:03;;;;;;;;;5.67;5.67;;;;;;;;5075333;28;50889;-63
2022/03/14 13:17:28;;;;;;;;;5.67;4.33;;;;;;;;5073827;28;52187;-64
2022/03/14 13:19:53;;;;;;;;;7.67;6.00;;;;;;;;5073629;28;51114;-64
2022/03/14 13:22:21;;;;;;;;;4.00;4.00;;;;;;;;5075162;27;51172;-64
2022/03/14 13:24:47;;;;;;;;;5.00;4.00;;;;;;;;5075124;27;51264;-63
2022/03/14 13:27:34;;;;;;;;;5.33;4.33;;;;;;;;5074734;28;50884;-64
2022/03/14 13:30:03;;;;;;;;;6.67;6.67;;;;;;;;5075346;28;50916;-63
2022/03/14 13:32:31;;;;;;;;;6.00;6.00;;;;;;;;5074877;28;50999;-64
2022/03/14 13:35:07;;;;;;;;;5.00;5.00;;;;;;;;5075315;28;51079;-64
2022/03/14 13:37:41;;;;;;;;;6.67;6.33;;;;;;;;5075197;27;51226;-64
2022/03/14 13:40:19;;;;;;;;;7.33;6.00;;;;;;;;5075189;27;51199;-64
2022/03/14 13:42:45;;;;;;;;;4.33;4.33;;;;;;;;5074854;27;51050;-64
2022/03/14 13:45:11;;;;;;;;;4.67;4.00;;;;;;;;5075523;28;50924;-66
2022/03/14 13:47:36;;;;;;;;;5.00;4.00;;;;;;;;5074514;28;51045;-64
2022/03/14 13:50:01;;;;;;;;;5.33;5.33;;;;;;;;5073567;28;51135;-64
2022/03/14 13:52:27;;;;;;;;;5.33;5.33;;;;;;;;5107132;27;51015;-64
2022/03/14 13:54:53;;;;;;;;;6.00;5.00;;;;;;;;5073221;28;50939;-64
2022/03/14 13:57:21;;;;;;;;;6.00;6.00;;;;;;;;5073739;28;51104;-63
2022/03/14 13:59:47;;;;;;;;;5.00;5.00;;;;;;;;5073510;27;51100;-65
2022/03/14 14:02:14;;;;;;;;;5.00;5.00;;;;;;;;5072273;28;50917;-63
2022/03/14 14:04:42;;;;;;;;;3.00;2.00;;;;;;;;5074566;28;51162;-63
2022/03/14 14:07:18;;;;;;;;;3.00;3.00;;;;;;;;5074267;28;51242;-63
2022/03/14 14:09:44;;;;;;;;;5.67;3.67;;;;;;;;5074170;27;51024;-63
2022/03/14 14:12:15;;;;;;;;;3.33;2.00;;;;;;;;5073888;28;50942;-63
2022/03/14 14:14:40;;;;;;;;;3.00;2.33;;;;;;;;5074604;28;50867;-63
2022/03/14 14:17:13;;;;;;;;;3.00;2.67;;;;;;;;5072803;28;53552;-64
2022/03/14 14:19:57;;;;;;;;;1.00;1.00;;;;;;;;5074013;28;50885;-64
2022/03/14 14:22:32;;;;;;;;;3.00;2.67;;;;;;;;5074256;28;51131;-63
2022/03/14 14:24:57;;;;;;;;;3.00;3.00;;;;;;;;5074616;28;50784;-62
2022/03/14 14:27:26;;;;;;;;;2.00;1.33;;;;;;;;5073440;28;50928;-63
2022/03/14 14:29:58;;;;;;;;;4.00;3.67;;;;;;;;5074549;28;51138;-63
2022/03/14 14:32:24;;;;;;;;;2.00;2.00;;;;;;;;5073799;28;50974;-63
2022/03/14 14:34:50;;;;;;;;;3.67;2.67;;;;;;;;5074395;28;50815;-63